sensor_id;sensor_type;location;lat;lon;timestamp;P1;durP1;ratioP1;P2;durP2;ratioP2
1479;SDS011;732;51.698;4.886;2022-07-18T00:00:06;10.73;;;7.37;;
1479;SDS011;732;51.698;4.886;2022-07-18T00:02:36;12.90;;;7.63;;
1479;SDS011;732;51.698;4.886;2022-07-18T00:05:05;19.23;;;6.73;;
1479;SDS011;732;51.698;4.886;2022-07-18T00:07:35;12.33;;;7.33;;
1479;SDS011;732;51.698;4.886;2022-07-18T00:10:04;9.90;;;7.57;;
1479;SDS011;732;51.698;4.886;2022-07-18T00:12:33;10.70;;;7.13;;
1479;SDS011;732;51.698;4.886;2022-07-18T00:15:02;12.40;;;7.07;;
1479;SDS011;732;51.698;4.886;2022-07-18T00:17:34;11.37;;;6.50;;
1479;SDS011;732;51.698;4.886;2022-07-18T00:20:03;14.70;;;7.70;;
1479;SDS011;732;51.698;4.886;2022-07-18T00:22:34;11.13;;;6.93;;
1479;SDS011;732;51.698;4.886;2022-07-18T00:25:03;14.83;;;7.43;;
1479;SDS011;732;51.698;4.886;2022-07-18T00:27:32;12.07;;;7.50;;
1479;SDS011;732;51.698;4.886;2022-07-18T00:30:01;11.57;;;7.40;;
1479;SDS011;732;51.698;4.886;2022-07-18T00:32:32;11.10;;;7.20;;
1479;SDS011;732;51.698;4.886;2022-07-18T00:35:00;15.07;;;7.63;;
1479;SDS011;732;51.698;4.886;2022-07-18T00:37:29;13.00;;;7.20;;
1479;SDS011;732;51.698;4.886;2022-07-18T00:39:57;9.70;;;6.73;;
1479;SDS011;732;51.698;4.886;2022-07-18T00:42:25;11.83;;;7.90;;
1479;SDS011;732;51.698;4.886;2022-07-18T00:44:54;10.40;;;7.03;;
1479;SDS011;732;51.698;4.886;2022-07-18T00:47:23;14.57;;;7.53;;
1479;SDS011;732;51.698;4.886;2022-07-18T00:49:53;10.13;;;6.83;;
1479;SDS011;732;51.698;4.886;2022-07-18T00:52:21;12.77;;;7.37;;
1479;SDS011;732;51.698;4.886;2022-07-18T00:54:50;11.10;;;7.20;;
1479;SDS011;732;51.698;4.886;2022-07-18T00:57:19;12.30;;;7.00;;
1479;SDS011;732;51.698;4.886;2022-07-18T00:59:48;12.00;;;6.80;;
1479;SDS011;732;51.698;4.886;2022-07-18T01:02:35;10.53;;;6.57;;
1479;SDS011;732;51.698;4.886;2022-07-18T01:05:06;8.40;;;6.10;;
1479;SDS011;732;51.698;4.886;2022-07-18T01:07:35;9.93;;;6.57;;
1479;SDS011;732;51.698;4.886;2022-07-18T01:10:04;9.60;;;6.10;;
1479;SDS011;732;51.698;4.886;2022-07-18T01:12:34;9.33;;;6.83;;
1479;SDS011;732;51.698;4.886;2022-07-18T01:15:02;8.70;;;6.40;;
1479;SDS011;732;51.698;4.886;2022-07-18T01:17:32;9.77;;;6.90;;
1479;SDS011;732;51.698;4.886;2022-07-18T01:20:01;9.53;;;6.53;;
1479;SDS011;732;51.698;4.886;2022-07-18T01:22:32;13.40;;;6.50;;
1479;SDS011;732;51.698;4.886;2022-07-18T01:25:00;8.33;;;5.80;;
1479;SDS011;732;51.698;4.886;2022-07-18T01:27:29;11.53;;;6.10;;
1479;SDS011;732;51.698;4.886;2022-07-18T01:29:57;12.00;;;6.60;;
1479;SDS011;732;51.698;4.886;2022-07-18T01:32:26;8.50;;;6.00;;
1479;SDS011;732;51.698;4.886;2022-07-18T01:34:55;9.40;;;6.07;;
1479;SDS011;732;51.698;4.886;2022-07-18T01:37:23;10.33;;;5.83;;
1479;SDS011;732;51.698;4.886;2022-07-18T01:39:53;7.07;;;5.53;;
1479;SDS011;732;51.698;4.886;2022-07-18T01:42:21;8.23;;;5.60;;
1479;SDS011;732;51.698;4.886;2022-07-18T01:44:50;10.30;;;5.40;;
1479;SDS011;732;51.698;4.886;2022-07-18T01:47:19;9.30;;;5.97;;
1479;SDS011;732;51.698;4.886;2022-07-18T01:49:47;10.43;;;5.20;;
1479;SDS011;732;51.698;4.886;2022-07-18T01:52:16;8.53;;;5.43;;
1479;SDS011;732;51.698;4.886;2022-07-18T01:54:45;10.40;;;5.80;;
1479;SDS011;732;51.698;4.886;2022-07-18T01:57:15;11.73;;;5.07;;
1479;SDS011;732;51.698;4.886;2022-07-18T01:59:43;10.23;;;6.20;;
1479;SDS011;732;51.698;4.886;2022-07-18T02:02:11;12.40;;;5.80;;
1479;SDS011;732;51.698;4.886;2022-07-18T02:04:40;9.67;;;6.13;;
1479;SDS011;732;51.698;4.886;2022-07-18T02:07:27;8.80;;;5.47;;
1479;SDS011;732;51.698;4.886;2022-07-18T02:09:57;9.17;;;5.47;;
1479;SDS011;732;51.698;4.886;2022-07-18T02:12:28;8.33;;;5.73;;
1479;SDS011;732;51.698;4.886;2022-07-18T02:14:56;9.40;;;5.77;;
1479;SDS011;732;51.698;4.886;2022-07-18T02:17:25;8.50;;;5.40;;
1479;SDS011;732;51.698;4.886;2022-07-18T02:19:53;9.70;;;5.63;;
1479;SDS011;732;51.698;4.886;2022-07-18T02:22:22;8.53;;;5.40;;
1479;SDS011;732;51.698;4.886;2022-07-18T02:24:52;7.87;;;6.27;;
1479;SDS011;732;51.698;4.886;2022-07-18T02:27:20;11.40;;;6.50;;
1479;SDS011;732;51.698;4.886;2022-07-18T02:29:50;13.70;;;6.30;;
1479;SDS011;732;51.698;4.886;2022-07-18T02:32:19;8.43;;;5.50;;
1479;SDS011;732;51.698;4.886;2022-07-18T02:34:49;9.00;;;5.50;;
1479;SDS011;732;51.698;4.886;2022-07-18T02:37:18;10.77;;;5.73;;
1479;SDS011;732;51.698;4.886;2022-07-18T02:39:47;8.73;;;5.43;;
1479;SDS011;732;51.698;4.886;2022-07-18T02:42:15;9.63;;;5.33;;
1479;SDS011;732;51.698;4.886;2022-07-18T02:44:44;7.13;;;5.20;;
1479;SDS011;732;51.698;4.886;2022-07-18T02:47:14;9.80;;;5.63;;
1479;SDS011;732;51.698;4.886;2022-07-18T02:49:42;10.07;;;5.60;;
1479;SDS011;732;51.698;4.886;2022-07-18T02:52:11;8.63;;;5.70;;
1479;SDS011;732;51.698;4.886;2022-07-18T02:54:39;9.03;;;6.53;;
1479;SDS011;732;51.698;4.886;2022-07-18T02:57:07;10.60;;;6.50;;
1479;SDS011;732;51.698;4.886;2022-07-18T02:59:36;11.00;;;7.40;;
1479;SDS011;732;51.698;4.886;2022-07-18T03:02:06;8.80;;;6.60;;
1479;SDS011;732;51.698;4.886;2022-07-18T03:04:35;8.00;;;6.47;;
1479;SDS011;732;51.698;4.886;2022-07-18T03:07:04;9.37;;;6.20;;
1479;SDS011;732;51.698;4.886;2022-07-18T03:09:32;9.77;;;5.50;;
1479;SDS011;732;51.698;4.886;2022-07-18T03:12:01;13.53;;;6.33;;
1479;SDS011;732;51.698;4.886;2022-07-18T03:14:30;10.33;;;5.80;;
1479;SDS011;732;51.698;4.886;2022-07-18T03:16:58;10.87;;;6.27;;
1479;SDS011;732;51.698;4.886;2022-07-18T03:19:27;8.47;;;5.97;;
1479;SDS011;732;51.698;4.886;2022-07-18T03:21:57;13.17;;;6.47;;
1479;SDS011;732;51.698;4.886;2022-07-18T03:24:25;9.93;;;5.90;;
1479;SDS011;732;51.698;4.886;2022-07-18T03:26:54;8.03;;;6.03;;
1479;SDS011;732;51.698;4.886;2022-07-18T03:29:22;8.60;;;5.47;;
1479;SDS011;732;51.698;4.886;2022-07-18T03:31:52;11.57;;;6.23;;
1479;SDS011;732;51.698;4.886;2022-07-18T03:34:20;11.57;;;5.70;;
1479;SDS011;732;51.698;4.886;2022-07-18T03:36:49;13.13;;;5.77;;
1479;SDS011;732;51.698;4.886;2022-07-18T03:39:19;7.47;;;5.40;;
1479;SDS011;732;51.698;4.886;2022-07-18T03:41:47;9.07;;;5.37;;
1479;SDS011;732;51.698;4.886;2022-07-18T03:44:18;7.83;;;5.70;;
1479;SDS011;732;51.698;4.886;2022-07-18T03:46:47;15.10;;;6.10;;
1479;SDS011;732;51.698;4.886;2022-07-18T03:49:18;8.83;;;6.63;;
1479;SDS011;732;51.698;4.886;2022-07-18T03:51:47;7.83;;;5.20;;
1479;SDS011;732;51.698;4.886;2022-07-18T03:54:15;9.17;;;6.10;;
1479;SDS011;732;51.698;4.886;2022-07-18T03:56:45;7.83;;;6.00;;
1479;SDS011;732;51.698;4.886;2022-07-18T03:59:14;6.63;;;5.30;;
1479;SDS011;732;51.698;4.886;2022-07-18T04:01:42;10.63;;;6.77;;
1479;SDS011;732;51.698;4.886;2022-07-18T04:04:11;12.37;;;6.37;;
1479;SDS011;732;51.698;4.886;2022-07-18T04:06:39;10.03;;;5.63;;
1479;SDS011;732;51.698;4.886;2022-07-18T04:09:08;9.10;;;5.83;;
1479;SDS011;732;51.698;4.886;2022-07-18T04:11:36;8.77;;;6.17;;
1479;SDS011;732;51.698;4.886;2022-07-18T04:14:07;10.33;;;6.50;;
1479;SDS011;732;51.698;4.886;2022-07-18T04:16:35;12.70;;;6.43;;
1479;SDS011;732;51.698;4.886;2022-07-18T04:19:04;8.10;;;5.80;;
1479;SDS011;732;51.698;4.886;2022-07-18T04:21:32;10.80;;;6.23;;
1479;SDS011;732;51.698;4.886;2022-07-18T04:24:01;9.10;;;6.53;;
1479;SDS011;732;51.698;4.886;2022-07-18T04:26:30;8.10;;;6.13;;
1479;SDS011;732;51.698;4.886;2022-07-18T04:28:59;7.30;;;5.57;;
1479;SDS011;732;51.698;4.886;2022-07-18T04:31:28;9.70;;;6.17;;
1479;SDS011;732;51.698;4.886;2022-07-18T04:33:57;9.40;;;6.40;;
1479;SDS011;732;51.698;4.886;2022-07-18T04:36:26;18.10;;;6.17;;
1479;SDS011;732;51.698;4.886;2022-07-18T04:38:54;9.10;;;6.23;;
1479;SDS011;732;51.698;4.886;2022-07-18T04:41:23;10.03;;;6.10;;
1479;SDS011;732;51.698;4.886;2022-07-18T04:43:51;11.80;;;6.83;;
1479;SDS011;732;51.698;4.886;2022-07-18T04:46:20;7.97;;;5.93;;
1479;SDS011;732;51.698;4.886;2022-07-18T04:48:50;12.23;;;6.90;;
1479;SDS011;732;51.698;4.886;2022-07-18T04:51:19;10.63;;;6.00;;
1479;SDS011;732;51.698;4.886;2022-07-18T04:53:47;16.30;;;7.17;;
1479;SDS011;732;51.698;4.886;2022-07-18T04:56:15;11.50;;;6.47;;
1479;SDS011;732;51.698;4.886;2022-07-18T04:58:44;7.77;;;5.63;;
1479;SDS011;732;51.698;4.886;2022-07-18T05:01:13;7.87;;;6.20;;
1479;SDS011;732;51.698;4.886;2022-07-18T05:03:41;10.77;;;6.37;;
1479;SDS011;732;51.698;4.886;2022-07-18T05:06:14;11.03;;;6.30;;
1479;SDS011;732;51.698;4.886;2022-07-18T05:08:42;9.17;;;6.47;;
1479;SDS011;732;51.698;4.886;2022-07-18T05:11:10;11.23;;;6.50;;
1479;SDS011;732;51.698;4.886;2022-07-18T05:13:39;9.87;;;6.60;;
1479;SDS011;732;51.698;4.886;2022-07-18T05:16:07;12.50;;;8.13;;
1479;SDS011;732;51.698;4.886;2022-07-18T05:18:36;11.70;;;7.73;;
1479;SDS011;732;51.698;4.886;2022-07-18T05:21:04;13.53;;;8.00;;
1479;SDS011;732;51.698;4.886;2022-07-18T05:23:35;12.37;;;6.97;;
1479;SDS011;732;51.698;4.886;2022-07-18T05:26:03;15.33;;;8.23;;
1479;SDS011;732;51.698;4.886;2022-07-18T05:28:32;13.10;;;7.67;;
1479;SDS011;732;51.698;4.886;2022-07-18T05:31:00;9.80;;;7.03;;
1479;SDS011;732;51.698;4.886;2022-07-18T05:33:29;9.67;;;7.20;;
1479;SDS011;732;51.698;4.886;2022-07-18T05:36:02;11.40;;;7.43;;
1479;SDS011;732;51.698;4.886;2022-07-18T05:38:31;9.77;;;7.23;;
1479;SDS011;732;51.698;4.886;2022-07-18T05:41:01;10.27;;;8.03;;
1479;SDS011;732;51.698;4.886;2022-07-18T05:43:30;11.80;;;7.50;;
1479;SDS011;732;51.698;4.886;2022-07-18T05:45:58;11.40;;;7.93;;
1479;SDS011;732;51.698;4.886;2022-07-18T05:48:27;9.60;;;7.47;;
1479;SDS011;732;51.698;4.886;2022-07-18T05:50:55;14.20;;;8.57;;
1479;SDS011;732;51.698;4.886;2022-07-18T05:53:24;11.70;;;8.20;;
1479;SDS011;732;51.698;4.886;2022-07-18T05:55:53;15.13;;;9.27;;
1479;SDS011;732;51.698;4.886;2022-07-18T05:58:23;10.90;;;7.30;;
1479;SDS011;732;51.698;4.886;2022-07-18T06:00:52;15.77;;;8.10;;
1479;SDS011;732;51.698;4.886;2022-07-18T06:03:20;11.30;;;8.40;;
1479;SDS011;732;51.698;4.886;2022-07-18T06:05:49;12.17;;;7.60;;
1479;SDS011;732;51.698;4.886;2022-07-18T06:08:25;15.97;;;8.90;;
1479;SDS011;732;51.698;4.886;2022-07-18T06:10:53;17.67;;;8.93;;
1479;SDS011;732;51.698;4.886;2022-07-18T06:13:23;17.73;;;9.13;;
1479;SDS011;732;51.698;4.886;2022-07-18T06:15:52;22.50;;;9.30;;
1479;SDS011;732;51.698;4.886;2022-07-18T06:18:20;20.80;;;10.13;;
1479;SDS011;732;51.698;4.886;2022-07-18T06:20:49;11.33;;;8.50;;
1479;SDS011;732;51.698;4.886;2022-07-18T06:23:18;18.93;;;9.83;;
1479;SDS011;732;51.698;4.886;2022-07-18T06:25:46;21.63;;;10.30;;
1479;SDS011;732;51.698;4.886;2022-07-18T06:28:15;18.73;;;10.30;;
1479;SDS011;732;51.698;4.886;2022-07-18T06:30:44;13.40;;;9.67;;
1479;SDS011;732;51.698;4.886;2022-07-18T06:33:13;13.67;;;9.50;;
1479;SDS011;732;51.698;4.886;2022-07-18T06:35:42;19.87;;;10.17;;
1479;SDS011;732;51.698;4.886;2022-07-18T06:38:10;14.10;;;9.73;;
1479;SDS011;732;51.698;4.886;2022-07-18T06:40:39;18.13;;;11.23;;
1479;SDS011;732;51.698;4.886;2022-07-18T06:43:07;20.83;;;10.77;;
1479;SDS011;732;51.698;4.886;2022-07-18T06:45:36;18.60;;;10.47;;
1479;SDS011;732;51.698;4.886;2022-07-18T06:48:06;22.70;;;10.53;;
1479;SDS011;732;51.698;4.886;2022-07-18T06:50:36;20.27;;;10.57;;
1479;SDS011;732;51.698;4.886;2022-07-18T06:53:04;19.30;;;11.33;;
1479;SDS011;732;51.698;4.886;2022-07-18T06:55:33;13.93;;;9.80;;
1479;SDS011;732;51.698;4.886;2022-07-18T06:58:01;21.03;;;10.97;;
1479;SDS011;732;51.698;4.886;2022-07-18T07:00:30;19.83;;;11.13;;
1479;SDS011;732;51.698;4.886;2022-07-18T07:02:59;14.43;;;9.70;;
1479;SDS011;732;51.698;4.886;2022-07-18T07:05:29;16.63;;;9.97;;
1479;SDS011;732;51.698;4.886;2022-07-18T07:07:59;17.43;;;9.83;;
1479;SDS011;732;51.698;4.886;2022-07-18T07:10:27;19.73;;;9.93;;
1479;SDS011;732;51.698;4.886;2022-07-18T07:12:55;22.70;;;10.53;;
1479;SDS011;732;51.698;4.886;2022-07-18T07:15:24;13.90;;;9.00;;
1479;SDS011;732;51.698;4.886;2022-07-18T07:17:53;12.77;;;9.30;;
1479;SDS011;732;51.698;4.886;2022-07-18T07:20:21;13.60;;;9.43;;
1479;SDS011;732;51.698;4.886;2022-07-18T07:22:52;17.93;;;9.27;;
1479;SDS011;732;51.698;4.886;2022-07-18T07:25:23;13.53;;;9.10;;
1479;SDS011;732;51.698;4.886;2022-07-18T07:27:53;15.70;;;8.50;;
1479;SDS011;732;51.698;4.886;2022-07-18T07:30:22;12.50;;;7.73;;
1479;SDS011;732;51.698;4.886;2022-07-18T07:32:50;13.53;;;8.13;;
1479;SDS011;732;51.698;4.886;2022-07-18T07:35:19;16.80;;;8.10;;
1479;SDS011;732;51.698;4.886;2022-07-18T07:37:49;14.70;;;7.10;;
1479;SDS011;732;51.698;4.886;2022-07-18T07:40:23;12.93;;;7.50;;
1479;SDS011;732;51.698;4.886;2022-07-18T07:43:04;15.60;;;7.43;;
1479;SDS011;732;51.698;4.886;2022-07-18T07:45:34;9.03;;;6.40;;
1479;SDS011;732;51.698;4.886;2022-07-18T07:48:04;10.10;;;6.70;;
1479;SDS011;732;51.698;4.886;2022-07-18T07:50:34;12.33;;;7.17;;
1479;SDS011;732;51.698;4.886;2022-07-18T07:53:04;13.20;;;6.17;;
1479;SDS011;732;51.698;4.886;2022-07-18T07:55:33;9.17;;;6.07;;
1479;SDS011;732;51.698;4.886;2022-07-18T07:58:01;10.23;;;5.80;;
1479;SDS011;732;51.698;4.886;2022-07-18T08:00:31;8.83;;;5.67;;
1479;SDS011;732;51.698;4.886;2022-07-18T08:03:01;8.93;;;4.30;;
1479;SDS011;732;51.698;4.886;2022-07-18T08:05:32;9.97;;;4.20;;
1479;SDS011;732;51.698;4.886;2022-07-18T08:08:05;7.63;;;3.97;;
1479;SDS011;732;51.698;4.886;2022-07-18T08:10:34;6.60;;;4.20;;
1479;SDS011;732;51.698;4.886;2022-07-18T08:13:09;9.07;;;3.80;;
1479;SDS011;732;51.698;4.886;2022-07-18T08:15:39;5.97;;;3.93;;
1479;SDS011;732;51.698;4.886;2022-07-18T08:18:08;7.23;;;3.77;;
1479;SDS011;732;51.698;4.886;2022-07-18T08:20:40;5.33;;;3.67;;
1479;SDS011;732;51.698;4.886;2022-07-18T08:23:10;5.00;;;3.30;;
1479;SDS011;732;51.698;4.886;2022-07-18T08:25:40;6.60;;;4.20;;
1479;SDS011;732;51.698;4.886;2022-07-18T08:28:11;9.27;;;4.03;;
1479;SDS011;732;51.698;4.886;2022-07-18T08:30:40;4.60;;;3.30;;
1479;SDS011;732;51.698;4.886;2022-07-18T08:33:09;6.90;;;3.67;;
1479;SDS011;732;51.698;4.886;2022-07-18T08:35:41;9.23;;;3.30;;
1479;SDS011;732;51.698;4.886;2022-07-18T08:38:11;12.43;;;3.13;;
1479;SDS011;732;51.698;4.886;2022-07-18T08:40:40;5.70;;;3.20;;
1479;SDS011;732;51.698;4.886;2022-07-18T08:43:09;4.97;;;3.07;;
1479;SDS011;732;51.698;4.886;2022-07-18T08:45:49;4.50;;;3.37;;
1479;SDS011;732;51.698;4.886;2022-07-18T08:48:23;8.67;;;3.50;;
1479;SDS011;732;51.698;4.886;2022-07-18T08:50:52;6.50;;;3.43;;
1479;SDS011;732;51.698;4.886;2022-07-18T08:53:22;10.00;;;3.77;;
1479;SDS011;732;51.698;4.886;2022-07-18T08:55:50;5.80;;;3.90;;
1479;SDS011;732;51.698;4.886;2022-07-18T08:58:19;6.00;;;3.37;;
1479;SDS011;732;51.698;4.886;2022-07-18T09:01:08;5.23;;;3.30;;
1479;SDS011;732;51.698;4.886;2022-07-18T09:03:36;7.47;;;3.60;;
1479;SDS011;732;51.698;4.886;2022-07-18T09:06:05;11.40;;;3.33;;
1479;SDS011;732;51.698;4.886;2022-07-18T09:08:38;10.47;;;3.40;;
1479;SDS011;732;51.698;4.886;2022-07-18T09:11:09;5.53;;;3.17;;
1479;SDS011;732;51.698;4.886;2022-07-18T09:13:59;8.53;;;3.57;;
1479;SDS011;732;51.698;4.886;2022-07-18T09:16:27;10.90;;;3.17;;
1479;SDS011;732;51.698;4.886;2022-07-18T09:18:56;8.27;;;3.50;;
1479;SDS011;732;51.698;4.886;2022-07-18T09:21:24;9.60;;;3.40;;
1479;SDS011;732;51.698;4.886;2022-07-18T09:24:01;5.87;;;3.13;;
1479;SDS011;732;51.698;4.886;2022-07-18T09:26:36;7.30;;;3.23;;
1479;SDS011;732;51.698;4.886;2022-07-18T09:29:06;5.00;;;3.53;;
1479;SDS011;732;51.698;4.886;2022-07-18T09:31:54;10.70;;;3.13;;
1479;SDS011;732;51.698;4.886;2022-07-18T09:34:32;6.87;;;3.17;;
1479;SDS011;732;51.698;4.886;2022-07-18T09:37:02;9.00;;;3.30;;
1479;SDS011;732;51.698;4.886;2022-07-18T09:39:32;4.57;;;2.80;;
1479;SDS011;732;51.698;4.886;2022-07-18T09:42:13;6.00;;;3.07;;
1479;SDS011;732;51.698;4.886;2022-07-18T09:44:46;7.00;;;2.80;;
1479;SDS011;732;51.698;4.886;2022-07-18T09:47:25;7.33;;;3.10;;
1479;SDS011;732;51.698;4.886;2022-07-18T09:49:54;4.40;;;3.10;;
1479;SDS011;732;51.698;4.886;2022-07-18T09:52:22;7.13;;;2.87;;
1479;SDS011;732;51.698;4.886;2022-07-18T09:54:52;4.23;;;2.57;;
1479;SDS011;732;51.698;4.886;2022-07-18T09:57:32;8.70;;;2.40;;
1479;SDS011;732;51.698;4.886;2022-07-18T10:00:03;8.23;;;2.87;;
1479;SDS011;732;51.698;4.886;2022-07-18T10:02:37;7.93;;;3.00;;
1479;SDS011;732;51.698;4.886;2022-07-18T10:05:06;7.00;;;3.00;;
1479;SDS011;732;51.698;4.886;2022-07-18T10:07:36;6.30;;;2.73;;
1479;SDS011;732;51.698;4.886;2022-07-18T10:10:07;6.40;;;3.10;;
1479;SDS011;732;51.698;4.886;2022-07-18T10:12:36;8.23;;;3.00;;
1479;SDS011;732;51.698;4.886;2022-07-18T10:15:05;7.27;;;2.80;;
1479;SDS011;732;51.698;4.886;2022-07-18T10:17:35;7.13;;;3.13;;
1479;SDS011;732;51.698;4.886;2022-07-18T10:20:06;6.90;;;2.60;;
1479;SDS011;732;51.698;4.886;2022-07-18T10:22:37;7.97;;;3.10;;
1479;SDS011;732;51.698;4.886;2022-07-18T10:25:13;5.20;;;3.20;;
1479;SDS011;732;51.698;4.886;2022-07-18T10:27:48;6.10;;;3.07;;
1479;SDS011;732;51.698;4.886;2022-07-18T10:30:28;9.60;;;3.00;;
1479;SDS011;732;51.698;4.886;2022-07-18T10:33:00;6.70;;;3.30;;
1479;SDS011;732;51.698;4.886;2022-07-18T10:38:37;4.10;;;3.07;;
1479;SDS011;732;51.698;4.886;2022-07-18T10:41:08;8.90;;;3.20;;
1479;SDS011;732;51.698;4.886;2022-07-18T10:43:40;8.37;;;3.40;;
1479;SDS011;732;51.698;4.886;2022-07-18T10:46:12;10.83;;;3.50;;
1479;SDS011;732;51.698;4.886;2022-07-18T10:48:46;6.73;;;2.63;;
1479;SDS011;732;51.698;4.886;2022-07-18T10:51:28;5.73;;;2.60;;
1479;SDS011;732;51.698;4.886;2022-07-18T10:54:04;5.97;;;3.20;;
1479;SDS011;732;51.698;4.886;2022-07-18T11:02:30;6.83;;;3.30;;
1479;SDS011;732;51.698;4.886;2022-07-18T11:05:02;5.27;;;2.70;;
1479;SDS011;732;51.698;4.886;2022-07-18T11:08:00;5.60;;;3.17;;
1479;SDS011;732;51.698;4.886;2022-07-18T11:11:04;7.63;;;3.40;;
1479;SDS011;732;51.698;4.886;2022-07-18T11:13:38;5.07;;;3.10;;
1479;SDS011;732;51.698;4.886;2022-07-18T11:16:17;5.07;;;3.00;;
1479;SDS011;732;51.698;4.886;2022-07-18T11:21:57;5.00;;;2.90;;
1479;SDS011;732;51.698;4.886;2022-07-18T11:24:26;7.50;;;3.23;;
1479;SDS011;732;51.698;4.886;2022-07-18T11:26:55;3.70;;;3.00;;
1479;SDS011;732;51.698;4.886;2022-07-18T11:29:25;4.03;;;3.07;;
1479;SDS011;732;51.698;4.886;2022-07-18T11:31:54;5.30;;;2.90;;
1479;SDS011;732;51.698;4.886;2022-07-18T11:34:26;7.27;;;3.30;;
1479;SDS011;732;51.698;4.886;2022-07-18T11:37:11;7.30;;;3.50;;
1479;SDS011;732;51.698;4.886;2022-07-18T11:39:41;7.50;;;3.80;;
1479;SDS011;732;51.698;4.886;2022-07-18T11:42:09;5.80;;;3.30;;
1479;SDS011;732;51.698;4.886;2022-07-18T11:44:40;3.80;;;3.20;;
1479;SDS011;732;51.698;4.886;2022-07-18T11:47:09;4.33;;;3.07;;
1479;SDS011;732;51.698;4.886;2022-07-18T11:49:40;5.20;;;2.80;;
1479;SDS011;732;51.698;4.886;2022-07-18T11:52:24;7.20;;;3.50;;
1479;SDS011;732;51.698;4.886;2022-07-18T11:54:57;3.70;;;2.70;;
1479;SDS011;732;51.698;4.886;2022-07-18T11:57:27;6.93;;;3.43;;
1479;SDS011;732;51.698;4.886;2022-07-18T11:59:58;5.03;;;2.83;;
1479;SDS011;732;51.698;4.886;2022-07-18T12:05:40;7.80;;;3.53;;
1479;SDS011;732;51.698;4.886;2022-07-18T12:08:25;4.40;;;3.13;;
1479;SDS011;732;51.698;4.886;2022-07-18T12:11:10;4.77;;;2.80;;
1479;SDS011;732;51.698;4.886;2022-07-18T12:13:48;4.87;;;3.40;;
1479;SDS011;732;51.698;4.886;2022-07-18T12:16:24;5.93;;;2.90;;
1479;SDS011;732;51.698;4.886;2022-07-18T12:19:01;4.07;;;3.13;;
1479;SDS011;732;51.698;4.886;2022-07-18T12:21:45;6.33;;;3.33;;
1479;SDS011;732;51.698;4.886;2022-07-18T12:24:27;6.40;;;3.37;;
1479;SDS011;732;51.698;4.886;2022-07-18T12:27:08;11.30;;;2.80;;
1479;SDS011;732;51.698;4.886;2022-07-18T12:29:53;6.17;;;3.30;;
1479;SDS011;732;51.698;4.886;2022-07-18T12:32:36;4.10;;;3.10;;
1479;SDS011;732;51.698;4.886;2022-07-18T12:35:08;9.90;;;3.60;;
1479;SDS011;732;51.698;4.886;2022-07-18T12:37:39;8.27;;;3.40;;
1479;SDS011;732;51.698;4.886;2022-07-18T12:40:12;7.63;;;3.30;;
1479;SDS011;732;51.698;4.886;2022-07-18T12:43:01;5.30;;;3.60;;
1479;SDS011;732;51.698;4.886;2022-07-18T12:45:35;4.07;;;3.10;;
1479;SDS011;732;51.698;4.886;2022-07-18T12:48:07;6.37;;;3.10;;
1479;SDS011;732;51.698;4.886;2022-07-18T12:50:39;4.53;;;3.07;;
1479;SDS011;732;51.698;4.886;2022-07-18T12:53:09;5.00;;;2.73;;
1479;SDS011;732;51.698;4.886;2022-07-18T12:55:38;6.70;;;3.20;;
1479;SDS011;732;51.698;4.886;2022-07-18T12:58:07;5.27;;;3.37;;
1479;SDS011;732;51.698;4.886;2022-07-18T13:00:35;7.37;;;3.70;;
1479;SDS011;732;51.698;4.886;2022-07-18T13:03:04;8.13;;;3.33;;
1479;SDS011;732;51.698;4.886;2022-07-18T13:05:34;5.63;;;2.87;;
1479;SDS011;732;51.698;4.886;2022-07-18T13:08:02;8.63;;;3.60;;
1479;SDS011;732;51.698;4.886;2022-07-18T13:10:32;6.10;;;3.27;;
1479;SDS011;732;51.698;4.886;2022-07-18T13:13:01;3.83;;;2.83;;
1479;SDS011;732;51.698;4.886;2022-07-18T13:15:30;8.27;;;3.93;;
1479;SDS011;732;51.698;4.886;2022-07-18T13:18:00;4.03;;;3.53;;
1479;SDS011;732;51.698;4.886;2022-07-18T13:20:29;6.13;;;3.43;;
1479;SDS011;732;51.698;4.886;2022-07-18T13:22:59;4.30;;;3.63;;
1479;SDS011;732;51.698;4.886;2022-07-18T13:25:28;4.53;;;3.20;;
1479;SDS011;732;51.698;4.886;2022-07-18T13:27:59;5.17;;;3.40;;
1479;SDS011;732;51.698;4.886;2022-07-18T13:30:28;5.83;;;3.50;;
1479;SDS011;732;51.698;4.886;2022-07-18T13:32:56;5.23;;;3.90;;
1479;SDS011;732;51.698;4.886;2022-07-18T13:35:25;8.13;;;3.57;;
1479;SDS011;732;51.698;4.886;2022-07-18T13:37:53;5.00;;;3.53;;
1479;SDS011;732;51.698;4.886;2022-07-18T13:40:23;7.27;;;3.37;;
1479;SDS011;732;51.698;4.886;2022-07-18T13:42:54;6.33;;;3.60;;
1479;SDS011;732;51.698;4.886;2022-07-18T13:45:23;5.57;;;3.33;;
1479;SDS011;732;51.698;4.886;2022-07-18T13:47:52;4.20;;;3.20;;
1479;SDS011;732;51.698;4.886;2022-07-18T13:50:20;5.07;;;3.40;;
1479;SDS011;732;51.698;4.886;2022-07-18T13:52:49;5.97;;;3.60;;
1479;SDS011;732;51.698;4.886;2022-07-18T13:55:18;6.67;;;3.33;;
1479;SDS011;732;51.698;4.886;2022-07-18T13:57:47;6.50;;;3.73;;
1479;SDS011;732;51.698;4.886;2022-07-18T14:00:17;3.80;;;3.40;;
1479;SDS011;732;51.698;4.886;2022-07-18T14:02:46;5.90;;;3.40;;
1479;SDS011;732;51.698;4.886;2022-07-18T14:05:15;5.67;;;3.20;;
1479;SDS011;732;51.698;4.886;2022-07-18T14:07:44;8.87;;;3.80;;
1479;SDS011;732;51.698;4.886;2022-07-18T14:10:15;5.70;;;3.53;;
1479;SDS011;732;51.698;4.886;2022-07-18T14:12:44;4.70;;;3.60;;
1479;SDS011;732;51.698;4.886;2022-07-18T14:15:14;5.37;;;3.60;;
1479;SDS011;732;51.698;4.886;2022-07-18T14:17:42;3.97;;;3.57;;
1479;SDS011;732;51.698;4.886;2022-07-18T14:20:11;6.13;;;3.80;;
1479;SDS011;732;51.698;4.886;2022-07-18T14:22:42;4.40;;;3.23;;
1479;SDS011;732;51.698;4.886;2022-07-18T14:25:12;3.93;;;3.43;;
1479;SDS011;732;51.698;4.886;2022-07-18T14:27:43;9.17;;;3.80;;
1479;SDS011;732;51.698;4.886;2022-07-18T14:30:15;7.63;;;3.57;;
1479;SDS011;732;51.698;4.886;2022-07-18T14:32:44;3.97;;;3.13;;
1479;SDS011;732;51.698;4.886;2022-07-18T14:35:13;5.80;;;3.40;;
1479;SDS011;732;51.698;4.886;2022-07-18T14:37:41;5.30;;;3.80;;
1479;SDS011;732;51.698;4.886;2022-07-18T14:40:10;8.20;;;4.10;;
1479;SDS011;732;51.698;4.886;2022-07-18T14:42:38;7.20;;;3.50;;
1479;SDS011;732;51.698;4.886;2022-07-18T14:45:08;5.97;;;3.50;;
1479;SDS011;732;51.698;4.886;2022-07-18T14:47:38;3.90;;;3.30;;
1479;SDS011;732;51.698;4.886;2022-07-18T14:50:07;5.53;;;3.40;;
1479;SDS011;732;51.698;4.886;2022-07-18T14:52:37;4.60;;;3.90;;
1479;SDS011;732;51.698;4.886;2022-07-18T14:55:06;5.10;;;3.33;;
1479;SDS011;732;51.698;4.886;2022-07-18T14:57:37;4.40;;;4.00;;
1479;SDS011;732;51.698;4.886;2022-07-18T15:00:07;7.80;;;3.63;;
1479;SDS011;732;51.698;4.886;2022-07-18T15:02:37;5.23;;;3.20;;
1479;SDS011;732;51.698;4.886;2022-07-18T15:05:08;5.53;;;3.70;;
1479;SDS011;732;51.698;4.886;2022-07-18T15:07:37;9.23;;;3.93;;
1479;SDS011;732;51.698;4.886;2022-07-18T15:10:06;7.43;;;3.70;;
1479;SDS011;732;51.698;4.886;2022-07-18T15:12:38;4.60;;;3.43;;
1479;SDS011;732;51.698;4.886;2022-07-18T15:15:07;4.10;;;3.50;;
1479;SDS011;732;51.698;4.886;2022-07-18T15:17:36;5.80;;;3.53;;
1479;SDS011;732;51.698;4.886;2022-07-18T15:20:07;5.23;;;3.60;;
1479;SDS011;732;51.698;4.886;2022-07-18T15:22:38;10.47;;;4.57;;
1479;SDS011;732;51.698;4.886;2022-07-18T15:25:07;5.43;;;3.70;;
1479;SDS011;732;51.698;4.886;2022-07-18T15:27:36;5.90;;;3.90;;
1479;SDS011;732;51.698;4.886;2022-07-18T15:30:05;5.30;;;3.60;;
1479;SDS011;732;51.698;4.886;2022-07-18T15:32:56;6.87;;;3.47;;
1479;SDS011;732;51.698;4.886;2022-07-18T15:35:25;6.57;;;3.87;;
1479;SDS011;732;51.698;4.886;2022-07-18T15:37:53;4.93;;;3.40;;
1479;SDS011;732;51.698;4.886;2022-07-18T15:40:22;8.30;;;3.87;;
1479;SDS011;732;51.698;4.886;2022-07-18T15:42:51;4.30;;;3.70;;
1479;SDS011;732;51.698;4.886;2022-07-18T15:45:20;7.10;;;3.80;;
1479;SDS011;732;51.698;4.886;2022-07-18T15:47:49;5.63;;;3.57;;
1479;SDS011;732;51.698;4.886;2022-07-18T15:50:21;3.93;;;3.53;;
1479;SDS011;732;51.698;4.886;2022-07-18T15:52:50;6.70;;;3.90;;
1479;SDS011;732;51.698;4.886;2022-07-18T15:55:18;4.83;;;3.50;;
1479;SDS011;732;51.698;4.886;2022-07-18T15:57:55;4.53;;;3.00;;
1479;SDS011;732;51.698;4.886;2022-07-18T16:00:24;5.43;;;3.47;;